KLFK

Angelina County Airport

Lufkin, Texas, USA
METAR KLFK 190653Z AUTO 18005KT 10SM OVC065 03/M07 A3036 RMK AO2 SLP283 T00281067
Observed Flight Rules
Jan-19 @ 06:53 UTC (24 minutes ago) Visual Flight Rules
Wind Visibility Clouds
180° at 5 knots 10 miles
  • Overcast at 6,500' AGL
Temperatures Readings
Current 3°C / 37°F
Dewpoint -7°C / 19°F
Humidity 48%
Altimeter 30.36" Hg
Pressure 1028.3 hPa
Elevation 88
METAR KLFK 190653Z AUTO 18005KT 10SM OVC065 03/M07 A3036 RMK AO2 SLP283 T00281067
Observed Flight Rules
Jan-19 @ 06:53 UTC
(24 minutes ago)
VFR
Wind Visibility
180° at 5 knots 10 miles
Clouds
  • Overcast at 6,500' AGL
Temperature Dewpoint
3°C / 37°F -7°C / 19°F
Humidity Altimeter Pressure
48% 30.36" Hg 1028.3 hPa